Time;durP1;ratioP1;P1;durP2;ratioP2;P2;SDS_P1;SDS_P2;PMS_P1;PMS_P2;Temp;Humidity;BMP_temperature;BMP_pressure;BME280_temperature;BME280_humidity;BME280_pressure;Samples;Min_cycle;Max_cycle;Signal;HPM_P1;HPM_P2
2022/08/05 00:01:01;;;;;;;1.27;1.00;;;26.70;1.00;;;;;;5116880;28;20441;-72
2022/08/05 00:03:28;;;;;;;1.00;0.90;;;26.60;1.00;;;;;;5116436;28;20907;-72
2022/08/05 00:05:55;;;;;;;1.10;0.97;;;26.60;1.00;;;;;;5116613;28;20495;-73
2022/08/05 00:08:26;;;;;;;1.57;1.10;;;26.50;1.00;;;;;;5116414;28;20623;-71
2022/08/05 00:10:53;;;;;;;1.17;1.00;;;26.60;1.00;;;;;;5116279;28;20488;-71
2022/08/05 00:13:21;;;;;;;1.63;0.90;;;26.60;1.00;;;;;;5116019;28;20492;-71
2022/08/05 00:15:48;;;;;;;1.10;1.00;;;26.80;1.00;;;;;;5115565;28;20445;-70
2022/08/05 00:18:15;;;;;;;1.10;1.00;;;26.80;1.00;;;;;;5115359;28;20453;-71
2022/08/05 00:20:42;;;;;;;1.20;1.10;;;26.90;1.00;;;;;;5115407;28;20510;-71
2022/08/05 00:23:09;;;;;;;1.80;1.10;;;26.80;1.00;;;;;;5115201;28;20523;-73
2022/08/05 00:25:36;;;;;;;2.03;1.93;;;26.80;1.00;;;;;;5115840;28;20484;-72
2022/08/05 00:28:03;;;;;;;1.40;1.10;;;26.80;1.00;;;;;;5114926;28;20496;-71
2022/08/05 00:30:31;;;;;;;1.13;1.03;;;26.80;1.00;;;;;;5107003;28;20516;-72
2022/08/05 00:32:58;;;;;;;1.23;1.10;;;26.70;1.00;;;;;;5115612;28;20977;-71
2022/08/05 00:35:25;;;;;;;2.27;1.30;;;26.70;1.00;;;;;;5116394;28;20484;-72
2022/08/05 00:37:52;;;;;;;1.70;1.03;;;26.70;1.00;;;;;;5116367;28;20785;-72
2022/08/05 00:40:20;;;;;;;1.30;0.90;;;26.70;1.00;;;;;;5118718;28;20437;-71
2022/08/05 00:42:47;;;;;;;1.70;1.10;;;26.70;1.00;;;;;;5120758;28;20495;-71
2022/08/05 00:45:14;;;;;;;1.27;1.10;;;26.70;1.00;;;;;;5120511;28;20506;-72
2022/08/05 00:47:43;;;;;;;1.20;1.10;;;26.70;1.00;;;;;;5120703;28;20489;-72
2022/08/05 00:50:10;;;;;;;1.10;1.00;;;26.60;1.00;;;;;;5120491;28;20579;-72
2022/08/05 00:52:37;;;;;;;1.00;0.90;;;26.50;1.00;;;;;;5120187;28;20479;-71
2022/08/05 00:55:05;;;;;;;2.50;1.10;;;26.50;1.00;;;;;;5120666;28;20445;-71
2022/08/05 00:57:32;;;;;;;1.40;1.17;;;26.40;1.00;;;;;;5120154;28;20452;-73
2022/08/05 00:59:59;;;;;;;1.30;1.10;;;26.40;1.00;;;;;;5120011;28;20891;-72
2022/08/05 01:02:26;;;;;;;1.70;1.00;;;26.40;1.00;;;;;;5120062;28;20452;-72
2022/08/05 01:04:54;;;;;;;1.00;0.90;;;26.50;1.00;;;;;;5120012;28;20540;-72
2022/08/05 01:07:21;;;;;;;3.50;0.90;;;26.50;1.00;;;;;;5120116;28;20569;-72
2022/08/05 01:09:48;;;;;;;3.23;0.70;;;26.60;1.00;;;;;;5119788;28;20479;-72
2022/08/05 01:12:20;;;;;;;4.23;0.70;;;26.70;1.00;;;;;;5119722;28;20939;-71
2022/08/05 01:14:52;;;;;;;2.70;0.70;;;26.80;1.00;;;;;;5119779;28;20480;-71
2022/08/05 01:17:27;;;;;;;0.87;0.70;;;26.80;1.00;;;;;;5118755;28;20445;-71
2022/08/05 01:20:06;;;;;;;1.33;0.60;;;26.80;1.00;;;;;;5119426;28;20536;-72
2022/08/05 01:22:55;;;;;;;0.70;0.60;;;26.70;1.00;;;;;;5119868;28;20815;-72
2022/08/05 01:25:44;;;;;;;1.13;0.70;;;26.70;1.00;;;;;;5119501;28;20446;-71
2022/08/05 01:28:24;;;;;;;1.73;0.90;;;26.60;1.00;;;;;;5119049;28;20966;-72
2022/08/05 01:30:54;;;;;;;0.80;0.67;;;26.60;1.00;;;;;;5118374;28;20709;-72
2022/08/05 01:33:28;;;;;;;0.80;0.70;;;26.60;1.00;;;;;;5117793;28;20448;-71
2022/08/05 01:35:58;;;;;;;1.10;0.70;;;26.50;1.00;;;;;;5117887;28;20462;-72
2022/08/05 01:38:27;;;;;;;0.80;0.60;;;26.40;1.00;;;;;;5118004;28;20908;-72
2022/08/05 01:40:57;;;;;;;1.50;0.77;;;26.40;1.00;;;;;;5118032;28;20508;-72
2022/08/05 01:43:27;;;;;;;0.80;0.60;;;26.40;1.00;;;;;;5119027;28;20498;-72
2022/08/05 01:45:55;;;;;;;0.97;0.70;;;26.40;1.00;;;;;;5119474;28;20468;-72
2022/08/05 01:48:23;;;;;;;1.07;0.80;;;26.40;1.00;;;;;;5119145;28;20453;-73
2022/08/05 01:50:55;;;;;;;2.83;0.70;;;26.40;1.00;;;;;;5119192;28;20444;-73
2022/08/05 01:53:24;;;;;;;1.27;0.70;;;26.40;1.00;;;;;;5118821;28;20456;-73
2022/08/05 01:55:57;;;;;;;1.17;0.70;;;26.30;1.00;;;;;;5119369;28;20495;-73
2022/08/05 01:58:27;;;;;;;0.90;0.70;;;26.30;1.00;;;;;;5118896;28;20492;-72
2022/08/05 02:00:56;;;;;;;3.23;0.70;;;26.30;1.00;;;;;;5118862;28;20484;-73
2022/08/05 02:03:27;;;;;;;1.50;0.67;;;26.20;1.00;;;;;;5118302;28;20492;-73
2022/08/05 02:05:55;;;;;;;0.90;0.67;;;26.20;1.00;;;;;;5118809;28;20440;-72
2022/08/05 02:08:22;;;;;;;1.50;0.60;;;26.20;1.00;;;;;;5118975;28;20489;-73
2022/08/05 02:10:53;;;;;;;1.43;0.60;;;26.20;1.00;;;;;;5119101;28;20436;-73
2022/08/05 02:13:29;;;;;;;0.90;0.70;;;26.10;1.00;;;;;;5118752;28;20837;-73
2022/08/05 02:16:04;;;;;;;1.00;0.80;;;26.10;1.00;;;;;;5117616;28;20505;-72
2022/08/05 02:18:36;;;;;;;2.40;0.77;;;26.10;1.00;;;;;;5118180;28;20550;-73
2022/08/05 02:21:16;;;;;;;0.80;0.80;;;26.10;1.00;;;;;;5118315;28;20484;-72
2022/08/05 02:23:46;;;;;;;0.97;0.80;;;26.10;1.00;;;;;;5117830;28;20545;-72
2022/08/05 02:26:19;;;;;;;3.57;0.80;;;26.00;1.00;;;;;;5117750;28;20480;-72
2022/08/05 02:28:48;;;;;;;0.83;0.63;;;26.00;1.00;;;;;;5117805;28;20449;-73
2022/08/05 02:31:21;;;;;;;1.00;0.70;;;26.00;1.00;;;;;;5118407;28;20879;-72
2022/08/05 02:33:57;;;;;;;1.77;0.80;;;26.10;1.00;;;;;;5117804;28;20453;-72
2022/08/05 02:36:27;;;;;;;1.07;0.70;;;26.00;1.00;;;;;;5118032;28;20924;-72
2022/08/05 02:38:56;;;;;;;0.80;0.70;;;25.90;1.00;;;;;;5118439;28;20452;-73
2022/08/05 02:41:25;;;;;;;1.03;0.70;;;25.80;1.00;;;;;;5118456;28;20484;-72
2022/08/05 02:43:56;;;;;;;1.87;0.87;;;25.80;1.00;;;;;;5118169;28;20547;-72
2022/08/05 02:46:24;;;;;;;0.93;0.60;;;25.80;1.00;;;;;;5118266;28;20428;-73
2022/08/05 02:48:52;;;;;;;0.93;0.80;;;25.80;1.00;;;;;;5118195;28;20518;-72
2022/08/05 02:51:23;;;;;;;1.60;0.87;;;25.80;1.00;;;;;;5118116;28;20518;-72
2022/08/05 02:53:51;;;;;;;0.80;0.70;;;25.70;1.00;;;;;;5117603;28;20839;-72
2022/08/05 02:56:19;;;;;;;0.90;0.70;;;25.80;1.00;;;;;;5118148;28;20523;-73
2022/08/05 02:58:46;;;;;;;1.47;0.70;;;25.70;1.00;;;;;;5117176;28;20457;-73
2022/08/05 03:01:19;;;;;;;1.10;0.70;;;25.80;1.00;;;;;;5116311;28;20512;-72
2022/08/05 03:03:49;;;;;;;1.60;0.80;;;25.90;1.00;;;;;;5115061;28;20896;-72
2022/08/05 03:06:17;;;;;;;0.97;0.80;;;25.90;1.00;;;;;;5116138;28;20523;-73
2022/08/05 03:08:44;;;;;;;2.03;0.80;;;25.80;1.00;;;;;;5116069;28;20453;-73
2022/08/05 03:11:18;;;;;;;1.03;0.80;;;25.70;1.00;;;;;;5115848;28;20453;-73
2022/08/05 03:13:45;;;;;;;1.63;0.60;;;25.70;1.00;;;;;;5115975;28;20738;-72
2022/08/05 03:16:12;;;;;;;1.53;0.70;;;25.70;1.00;;;;;;5117149;28;20480;-72
2022/08/05 03:18:41;;;;;;;1.50;0.70;;;25.60;1.00;;;;;;5117300;28;20548;-73
2022/08/05 03:21:08;;;;;;;1.30;0.77;;;25.70;1.00;;;;;;5117709;28;20472;-72
2022/08/05 03:23:36;;;;;;;1.93;0.90;;;25.70;1.00;;;;;;5117395;28;20484;-73
2022/08/05 03:26:04;;;;;;;1.83;0.90;;;25.70;1.00;;;;;;5117007;28;20876;-73
2022/08/05 03:28:32;;;;;;;0.97;0.80;;;25.70;1.00;;;;;;5116987;28;20452;-72
2022/08/05 03:31:00;;;;;;;1.80;0.80;;;25.70;1.00;;;;;;5116996;28;20538;-73
2022/08/05 03:33:28;;;;;;;0.90;0.70;;;25.70;1.00;;;;;;5117026;28;20908;-73
2022/08/05 03:35:57;;;;;;;2.20;0.70;;;25.70;1.00;;;;;;5117323;28;20524;-73
2022/08/05 03:38:25;;;;;;;2.07;0.80;;;25.70;1.00;;;;;;5117437;28;20460;-73
2022/08/05 03:40:53;;;;;;;1.23;0.90;;;25.70;1.00;;;;;;5117387;28;20479;-72
2022/08/05 03:43:23;;;;;;;1.40;1.30;;;25.70;1.00;;;;;;5116780;28;20542;-73
2022/08/05 03:45:51;;;;;;;1.20;0.70;;;25.60;1.00;;;;;;5116947;28;20484;-73
2022/08/05 03:48:18;;;;;;;2.10;0.80;;;25.50;1.00;;;;;;5116696;28;20506;-73
2022/08/05 03:50:52;;;;;;;1.13;0.80;;;25.40;1.00;;;;;;5116576;28;20491;-73
2022/08/05 03:53:29;;;;;;;1.77;0.90;;;25.40;1.00;;;;;;5116956;28;20449;-73
2022/08/05 03:56:03;;;;;;;3.40;0.90;;;25.50;1.00;;;;;;5117294;28;20440;-73
2022/08/05 03:58:32;;;;;;;10.73;4.67;;;25.40;1.00;;;;;;5116998;28;20835;-73
2022/08/05 04:01:02;;;;;;;1.00;0.87;;;25.30;1.00;;;;;;5116745;28;20512;-72
2022/08/05 04:03:34;;;;;;;1.90;1.40;;;25.30;1.00;;;;;;5116604;28;20912;-72
2022/08/05 04:06:02;;;;;;;3.60;1.70;;;25.10;1.00;;;;;;5116435;28;20460;-73
2022/08/05 04:08:31;;;;;;;2.10;0.90;;;25.00;1.00;;;;;;5116914;28;20505;-72
2022/08/05 04:10:59;;;;;;;1.47;0.90;;;25.00;1.00;;;;;;5116591;28;20497;-72
2022/08/05 04:13:26;;;;;;;1.50;0.80;;;25.00;1.00;;;;;;5116592;28;20515;-73
2022/08/05 04:15:53;;;;;;;4.00;0.90;;;25.00;1.00;;;;;;5116443;28;20449;-72
2022/08/05 04:18:23;;;;;;;1.47;1.00;;;24.90;1.00;;;;;;5115420;28;20821;-72
2022/08/05 04:20:53;;;;;;;1.63;0.70;;;25.00;1.00;;;;;;5116586;28;20453;-72
2022/08/05 04:23:22;;;;;;;1.20;0.90;;;24.80;1.00;;;;;;5116181;28;20463;-72
2022/08/05 04:25:51;;;;;;;1.00;0.90;;;24.60;1.00;;;;;;5116338;28;20829;-72
2022/08/05 04:28:18;;;;;;;0.87;0.80;;;24.60;1.00;;;;;;5116449;28;20536;-72
2022/08/05 04:30:45;;;;;;;1.20;0.80;;;24.50;1.00;;;;;;5116587;28;20676;-72
2022/08/05 04:33:12;;;;;;;0.90;0.80;;;24.40;1.00;;;;;;5116278;28;20476;-72
2022/08/05 04:35:39;;;;;;;0.93;0.80;;;24.40;1.00;;;;;;5115924;28;20536;-72
2022/08/05 04:38:06;;;;;;;1.80;0.80;;;24.50;1.00;;;;;;5116495;28;20472;-71
2022/08/05 04:40:34;;;;;;;1.63;0.80;;;24.40;1.00;;;;;;5115456;28;20510;-71
2022/08/05 04:43:04;;;;;;;1.40;0.80;;;24.40;5.20;;;;;;5116013;28;20772;-72
2022/08/05 04:45:31;;;;;;;1.57;0.83;;;24.50;13.90;;;;;;5115048;28;20883;-71
2022/08/05 04:48:07;;;;;;;1.10;0.80;;;24.40;51.20;;;;;;5113316;28;20456;-71
2022/08/05 04:50:39;;;;;;;1.73;0.80;;;24.40;95.50;;;;;;5113594;28;20501;-72
2022/08/05 04:53:06;;;;;;;4.50;1.00;;;24.30;99.90;;;;;;5112988;28;20772;-73
2022/08/05 04:55:33;;;;;;;1.60;0.80;;;24.30;99.90;;;;;;5113207;28;20492;-73
2022/08/05 04:58:02;;;;;;;1.20;0.90;;;24.30;99.90;;;;;;5112823;28;20437;-71
2022/08/05 05:00:28;;;;;;;2.87;0.80;;;24.30;99.90;;;;;;5114349;28;20495;-73
2022/08/05 05:02:55;;;;;;;1.87;0.90;;;24.30;99.90;;;;;;5115720;28;20518;-71
2022/08/05 05:05:22;;;;;;;1.03;0.90;;;24.30;99.90;;;;;;5114275;28;20452;-73
2022/08/05 05:07:49;;;;;;;1.53;0.80;;;24.20;99.90;;;;;;5115362;28;20453;-73
2022/08/05 05:10:16;;;;;;;1.20;0.80;;;24.40;99.90;;;;;;5115140;28;20521;-73
2022/08/05 05:12:43;;;;;;;2.03;0.80;;;24.50;91.60;;;;;;5114743;28;20790;-73
2022/08/05 05:15:12;;;;;;;1.10;0.83;;;24.60;22.00;;;;;;5115238;28;20763;-74
2022/08/05 05:17:40;;;;;;;1.67;1.57;;;24.70;2.30;;;;;;5115288;28;20456;-73
2022/08/05 05:20:08;;;;;;;1.10;0.90;;;24.90;1.00;;;;;;5116073;28;20803;-74
2022/08/05 05:22:35;;;;;;;1.03;0.90;;;25.00;1.00;;;;;;5115354;28;20495;-73
2022/08/05 05:25:04;;;;;;;10.07;1.00;;;25.00;1.00;;;;;;5116236;28;20482;-73
2022/08/05 05:27:32;;;;;;;1.00;0.90;;;25.10;1.00;;;;;;5118033;28;20505;-74
2022/08/05 05:29:59;;;;;;;1.20;1.07;;;25.10;1.00;;;;;;5119726;28;20487;-73
2022/08/05 05:32:28;;;;;;;1.77;1.00;;;25.20;1.00;;;;;;5119584;28;20452;-73
2022/08/05 05:34:55;;;;;;;1.60;0.90;;;25.30;1.00;;;;;;5118970;28;20436;-74
2022/08/05 05:37:22;;;;;;;1.73;1.00;;;25.30;1.00;;;;;;5118851;28;20728;-73
2022/08/05 05:39:49;;;;;;;2.73;0.90;;;25.30;1.00;;;;;;5119194;28;20487;-73
2022/08/05 05:42:16;;;;;;;4.00;1.03;;;25.40;1.00;;;;;;5118654;28;20512;-73
2022/08/05 05:44:44;;;;;;;2.27;0.97;;;25.50;1.00;;;;;;5118945;28;20456;-74
2022/08/05 05:47:10;;;;;;;2.93;1.10;;;25.60;1.00;;;;;;5118787;28;20501;-73
2022/08/05 05:49:39;;;;;;;1.40;1.10;;;25.70;1.00;;;;;;5117190;28;20789;-73
2022/08/05 05:52:06;;;;;;;2.17;1.20;;;25.70;1.00;;;;;;5117407;28;20915;-73
2022/08/05 05:54:33;;;;;;;1.37;1.20;;;25.70;1.00;;;;;;5120342;27;20588;-71
2022/08/05 05:57:00;;;;;;;3.33;1.50;;;25.70;1.00;;;;;;5138682;27;20511;-72
2022/08/05 05:59:27;;;;;;;2.30;1.40;;;25.80;1.00;;;;;;5137714;27;20452;-72
2022/08/05 06:01:54;;;;;;;1.30;1.00;;;25.70;1.00;;;;;;5138071;27;20562;-72
2022/08/05 06:04:21;;;;;;;1.10;1.00;;;25.70;1.00;;;;;;5137997;27;20463;-71
2022/08/05 06:06:49;;;;;;;1.10;1.00;;;25.80;1.00;;;;;;5138817;27;20734;-72
2022/08/05 06:09:17;;;;;;;1.57;1.20;;;25.80;1.00;;;;;;5139269;27;20499;-72
2022/08/05 06:11:44;;;;;;;1.20;1.10;;;25.80;1.00;;;;;;5138129;27;20906;-72
2022/08/05 06:14:12;;;;;;;1.30;1.00;;;25.80;1.00;;;;;;5138551;27;20467;-72
2022/08/05 06:16:39;;;;;;;4.00;1.43;;;25.90;1.00;;;;;;5138447;27;20448;-73
2022/08/05 06:19:06;;;;;;;2.20;1.10;;;25.90;1.00;;;;;;5138774;27;20962;-72
2022/08/05 06:21:33;;;;;;;1.30;0.90;;;25.90;1.00;;;;;;5138631;27;20863;-73
2022/08/05 06:24:01;;;;;;;2.70;1.00;;;25.90;1.00;;;;;;5138530;27;20486;-72
2022/08/05 06:26:28;;;;;;;1.13;1.03;;;26.00;1.00;;;;;;5138246;27;20447;-73
2022/08/05 06:28:57;;;;;;;1.17;0.97;;;26.20;1.00;;;;;;5138157;27;20455;-72
2022/08/05 06:31:29;;;;;;;1.10;1.00;;;26.30;1.00;;;;;;5128545;27;20812;-73
2022/08/05 06:33:59;;;;;;;1.00;0.83;;;26.30;1.00;;;;;;5138522;27;20550;-73
2022/08/05 06:36:26;;;;;;;1.30;0.90;;;26.40;1.00;;;;;;5138722;27;20448;-72
2022/08/05 06:38:53;;;;;;;1.10;1.00;;;26.40;1.00;;;;;;5138040;27;20486;-74
2022/08/05 06:41:22;;;;;;;1.00;0.83;;;26.50;1.00;;;;;;5137000;27;20446;-72
2022/08/05 06:43:49;;;;;;;1.57;0.90;;;26.50;1.00;;;;;;5136165;27;20578;-73
2022/08/05 06:46:17;;;;;;;1.13;0.83;;;26.40;1.00;;;;;;5136709;27;20455;-72
2022/08/05 06:48:44;;;;;;;1.10;1.00;;;26.40;1.00;;;;;;5136435;27;20890;-75
2022/08/05 06:51:11;;;;;;;2.10;0.90;;;26.50;1.00;;;;;;5135919;27;20540;-74
2022/08/05 06:53:38;;;;;;;1.60;1.20;;;26.50;1.00;;;;;;5136445;27;20890;-74
2022/08/05 06:56:05;;;;;;;1.77;0.87;;;26.60;1.00;;;;;;5137011;27;20479;-74
2022/08/05 06:58:34;;;;;;;1.37;0.80;;;26.50;1.00;;;;;;5136542;27;20942;-74
2022/08/05 07:01:02;;;;;;;2.60;1.63;;;26.60;1.00;;;;;;5135684;27;20546;-75
2022/08/05 07:03:29;;;;;;;1.10;0.87;;;26.80;1.00;;;;;;5136666;27;20831;-72
2022/08/05 07:05:56;;;;;;;3.03;0.70;;;26.90;1.00;;;;;;5121276;27;20444;-73
2022/08/05 07:08:23;;;;;;;1.20;0.90;;;27.00;1.00;;;;;;5116169;28;20565;-73
2022/08/05 07:10:50;;;;;;;1.67;0.80;;;27.00;1.00;;;;;;5117604;28;20202;-73
2022/08/05 07:18:50;;;;;;;1.40;0.80;;;27.00;1.00;;;;;;5116546;28;20508;-74
2022/08/05 07:21:17;;;;;;;1.63;0.70;;;27.10;1.00;;;;;;5116479;28;20472;-72
2022/08/05 07:23:44;;;;;;;1.40;0.90;;;27.10;1.00;;;;;;5116507;28;20520;-72
2022/08/05 07:26:11;;;;;;;7.93;0.90;;;27.20;1.00;;;;;;5117236;28;20464;-73
2022/08/05 07:28:38;;;;;;;1.40;0.90;;;27.20;1.00;;;;;;5117009;28;20480;-73
2022/08/05 07:31:06;;;;;;;1.63;0.80;;;27.20;1.00;;;;;;5130834;27;20819;-73
2022/08/05 07:33:33;;;;;;;0.93;0.73;;;27.30;1.00;;;;;;5140154;27;20452;-73
2022/08/05 07:36:13;;;;;;;;;;;;;;;;;;;;;
2022/08/05 07:38:42;;;;;;;0.90;0.73;;;27.40;1.00;;;;;;5129669;27;20914;-73
2022/08/05 07:41:11;;;;;;;1.17;1.00;;;27.50;1.00;;;;;;5136910;27;20444;-72
2022/08/05 07:43:38;;;;;;;1.17;0.93;;;27.60;1.00;;;;;;5136409;27;20523;-72
2022/08/05 07:46:07;;;;;;;6.40;1.03;;;27.70;1.00;;;;;;5130269;27;20473;-72
2022/08/05 07:48:34;;;;;;;1.40;1.30;;;27.60;1.00;;;;;;5128594;27;20452;-73
2022/08/05 07:51:01;;;;;;;2.50;2.30;;;27.70;1.00;;;;;;5135690;27;20446;-73
2022/08/05 07:53:28;;;;;;;1.10;0.70;;;27.70;1.00;;;;;;5132106;27;20542;-72
2022/08/05 07:55:55;;;;;;;0.90;0.70;;;27.60;1.00;;;;;;5131345;27;20934;-73
2022/08/05 07:58:22;;;;;;;1.17;0.80;;;27.60;1.00;;;;;;5135905;27;20463;-72
2022/08/05 08:00:49;;;;;;;1.20;0.60;;;27.70;1.00;;;;;;5135730;27;20944;-73
2022/08/05 08:03:18;;;;;;;0.70;0.60;;;27.70;1.00;;;;;;5135816;27;20938;-72
2022/08/05 08:05:46;;;;;;;0.90;0.63;;;27.80;1.00;;;;;;5136212;27;20879;-72
2022/08/05 08:08:14;;;;;;;0.97;0.70;;;27.80;1.00;;;;;;5136239;27;20475;-74
2022/08/05 08:10:41;;;;;;;0.77;0.67;;;27.90;1.00;;;;;;5136844;27;20912;-73
2022/08/05 08:13:08;;;;;;;0.70;0.60;;;28.00;1.00;;;;;;5133508;27;20445;-72
2022/08/05 08:15:35;;;;;;;1.10;0.70;;;28.00;1.00;;;;;;5135273;27;20280;-71
2022/08/05 08:18:02;;;;;;;0.97;0.60;;;27.90;1.00;;;;;;5129846;27;20483;-72
2022/08/05 08:20:30;;;;;;;0.90;0.57;;;27.90;1.00;;;;;;5136200;27;20838;-72
2022/08/05 08:23:03;;;;;;;0.70;0.50;;;28.00;1.00;;;;;;5132435;27;20568;-73
2022/08/05 08:25:30;;;;;;;0.90;0.60;;;28.00;1.00;;;;;;5136969;28;20754;-72
2022/08/05 08:27:58;;;;;;;0.80;0.60;;;28.00;1.00;;;;;;5137052;28;20520;-72
2022/08/05 08:30:25;;;;;;;0.67;0.50;;;28.00;1.00;;;;;;5136562;28;20455;-72
2022/08/05 08:32:52;;;;;;;1.20;0.60;;;28.10;1.00;;;;;;5136228;28;20475;-73
2022/08/05 08:35:19;;;;;;;0.70;0.50;;;28.20;1.00;;;;;;5136711;28;20451;-73
2022/08/05 08:37:48;;;;;;;0.70;0.50;;;28.10;1.00;;;;;;5136522;28;20452;-72
2022/08/05 08:40:14;;;;;;;0.60;0.60;;;27.90;1.00;;;;;;5136401;28;20530;-72
2022/08/05 08:42:48;;;;;;;0.67;0.60;;;28.10;1.00;;;;;;5135369;28;20571;-71
2022/08/05 08:45:16;;;;;;;1.17;0.60;;;28.20;1.00;;;;;;5136030;28;20849;-72
2022/08/05 08:47:46;;;;;;;1.00;0.70;;;28.40;1.00;;;;;;5135440;28;20436;-72
2022/08/05 08:50:14;;;;;;;0.60;0.50;;;28.50;1.00;;;;;;5135804;28;20832;-70
2022/08/05 08:52:44;;;;;;;1.77;0.47;;;28.70;1.00;;;;;;5133275;28;20759;-72
2022/08/05 08:55:13;;;;;;;0.90;0.60;;;28.90;1.00;;;;;;5135224;28;20448;-72
2022/08/05 08:57:41;;;;;;;0.80;0.60;;;28.90;1.00;;;;;;5135711;28;20462;-72
2022/08/05 09:00:09;;;;;;;0.60;0.50;;;28.80;1.00;;;;;;5135226;27;20490;-72
2022/08/05 09:02:36;;;;;;;1.47;0.57;;;28.80;1.00;;;;;;5138752;27;20824;-71
2022/08/05 09:05:04;;;;;;;0.60;0.50;;;28.90;1.00;;;;;;5139359;27;20522;-71
2022/08/05 09:07:31;;;;;;;0.70;0.50;;;29.00;1.00;;;;;;5139454;27;20546;-71
2022/08/05 09:09:58;;;;;;;0.93;0.53;;;29.10;1.00;;;;;;5138725;27;20537;-71
2022/08/05 09:12:26;;;;;;;0.83;0.60;;;29.30;1.00;;;;;;5128120;27;20845;-72
2022/08/05 09:14:53;;;;;;;0.70;0.50;;;29.50;1.00;;;;;;5118611;27;20522;-73
2022/08/05 09:17:20;;;;;;;0.57;0.47;;;29.60;1.00;;;;;;5118180;28;20492;-73
2022/08/05 09:19:47;;;;;;;3.80;0.70;;;29.50;1.00;;;;;;5118882;28;20476;-72
2022/08/05 09:22:15;;;;;;;0.70;0.60;;;29.40;1.00;;;;;;5117472;28;20486;-72
2022/08/05 09:24:43;;;;;;;0.73;0.50;;;29.50;1.00;;;;;;5116149;27;20472;-74
2022/08/05 09:27:10;;;;;;;0.70;0.53;;;29.70;1.00;;;;;;5117162;28;20884;-72
2022/08/05 09:29:44;;;;;;;0.90;0.60;;;29.80;1.00;;;;;;5117813;28;20491;-73
2022/08/05 09:32:12;;;;;;;0.70;0.50;;;29.80;1.00;;;;;;5120326;28;20476;-73
2022/08/05 09:34:49;;;;;;;0.70;0.50;;;29.90;1.00;;;;;;5140423;27;20538;-72
2022/08/05 09:37:21;;;;;;;0.80;0.40;;;29.90;1.00;;;;;;5135450;27;20460;-72
2022/08/05 09:39:48;;;;;;;0.50;0.40;;;30.00;1.00;;;;;;5119398;27;20741;-72
2022/08/05 09:42:16;;;;;;;0.77;0.50;;;29.80;1.00;;;;;;5136517;27;20919;-73
2022/08/05 09:44:46;;;;;;;1.07;0.60;;;30.00;1.00;;;;;;5119095;28;20939;-73
2022/08/05 09:47:15;;;;;;;1.07;0.70;;;29.90;1.00;;;;;;5118405;28;20497;-73
2022/08/05 09:49:44;;;;;;;0.90;0.60;;;30.00;1.00;;;;;;5117315;28;20923;-73
2022/08/05 09:52:19;;;;;;;0.70;0.50;;;29.80;1.00;;;;;;5118288;28;20486;-73
2022/08/05 09:54:57;;;;;;;0.90;0.60;;;29.90;1.00;;;;;;5117749;28;20899;-72
2022/08/05 09:57:32;;;;;;;0.50;0.40;;;30.00;1.00;;;;;;5119002;28;20506;-70
2022/08/05 10:00:02;;;;;;;0.50;0.50;;;29.90;1.00;;;;;;5116301;28;20451;-72
2022/08/05 10:02:34;;;;;;;0.70;0.53;;;29.90;1.00;;;;;;5115938;28;20457;-73
2022/08/05 10:05:10;;;;;;;0.80;0.60;;;30.10;1.00;;;;;;5117329;28;20477;-72
2022/08/05 10:07:50;;;;;;;0.97;0.60;;;30.20;1.00;;;;;;5116254;28;20444;-72
2022/08/05 10:10:18;;;;;;;0.80;0.50;;;30.60;1.00;;;;;;5117808;28;20529;-72
2022/08/05 10:12:48;;;;;;;0.77;0.50;;;30.90;1.00;;;;;;5126263;27;20514;-72
2022/08/05 10:15:22;;;;;;;0.70;0.50;;;31.00;1.00;;;;;;5120166;27;20953;-72
2022/08/05 10:18:11;;;;;;;0.70;0.50;;;31.30;1.00;;;;;;5108420;27;20473;-73
2022/08/05 10:20:46;;;;;;;0.90;0.50;;;31.60;1.00;;;;;;5099296;28;20764;-72
2022/08/05 10:23:14;;;;;;;0.80;0.50;;;31.70;1.00;;;;;;5103408;27;20528;-74
2022/08/05 10:25:42;;;;;;;0.70;0.50;;;31.80;1.00;;;;;;5118431;27;20895;-74
2022/08/05 10:28:09;;;;;;;2.23;0.50;;;32.10;1.00;;;;;;5114176;27;20476;-74
2022/08/05 10:30:39;;;;;;;0.60;0.50;;;32.10;1.00;;;;;;5134474;27;20519;-74
2022/08/05 10:33:07;;;;;;;0.60;0.50;;;32.30;1.00;;;;;;5121706;27;20456;-74
2022/08/05 10:35:35;;;;;;;0.77;0.50;;;32.50;1.00;;;;;;5114481;27;20441;-75
2022/08/05 10:38:03;;;;;;;1.37;0.50;;;32.70;1.00;;;;;;5099867;28;20453;-74
2022/08/05 10:40:35;;;;;;;0.60;0.50;;;32.90;1.00;;;;;;5096695;27;20434;-74
2022/08/05 10:43:12;;;;;;;0.70;0.60;;;32.60;1.00;;;;;;5115073;28;20484;-74
2022/08/05 10:45:55;;;;;;;1.30;1.00;;;32.50;1.00;;;;;;5113876;28;20457;-74
2022/08/05 10:48:32;;;;;;;0.90;0.70;;;32.80;1.00;;;;;;5101528;28;20231;-75
2022/08/05 10:51:01;;;;;;;0.70;0.60;;;33.10;1.00;;;;;;5117870;27;20484;-75
2022/08/05 10:53:42;;;;;;;0.60;0.50;;;33.10;1.00;;;;;;5123560;27;20547;-74
2022/08/05 10:56:12;;;;;;;1.03;0.50;;;33.20;1.00;;;;;;5118637;27;20468;-74
2022/08/05 10:58:49;;;;;;;0.60;0.50;;;33.10;1.00;;;;;;5116789;27;20562;-74
2022/08/05 11:01:18;;;;;;;0.60;0.47;;;33.10;1.00;;;;;;5093584;28;21142;-75
2022/08/05 11:04:10;;;;;;;0.60;0.50;;;33.50;1.00;;;;;;5107240;27;20488;-73
2022/08/05 11:07:05;;;;;;;0.70;0.50;;;33.70;1.00;;;;;;5095217;27;20528;-74
2022/08/05 11:09:43;;;;;;;0.70;0.50;;;33.60;1.00;;;;;;5123787;27;20524;-73
2022/08/05 11:12:44;;;;;;;1.50;0.53;;;33.50;1.00;;;;;;5115959;27;20563;-72
2022/08/05 11:15:17;;;;;;;0.80;0.50;;;33.90;1.00;;;;;;5124456;27;20436;-72
2022/08/05 11:17:46;;;;;;;0.60;0.50;;;34.30;1.00;;;;;;5118995;27;20448;-71
2022/08/05 11:20:36;;;;;;;0.70;0.47;;;34.70;1.00;;;;;;5114819;28;20885;-73
2022/08/05 11:23:31;;;;;;;0.70;0.50;;;34.60;1.00;;;;;;5116912;28;20530;-73
2022/08/05 11:26:07;;;;;;;0.70;0.50;;;34.10;1.00;;;;;;5116653;28;20959;-72
2022/08/05 11:28:46;;;;;;;0.60;0.50;;;34.20;1.00;;;;;;5116350;28;20456;-72
2022/08/05 11:31:26;;;;;;;1.10;0.60;;;34.50;1.00;;;;;;5116535;27;20455;-71
2022/08/05 11:34:02;;;;;;;0.70;0.50;;;34.80;1.00;;;;;;5124046;27;20531;-73
2022/08/05 11:36:49;;;;;;;0.80;0.60;;;34.80;1.00;;;;;;5127190;27;20447;-73
2022/08/05 11:39:32;;;;;;;0.80;0.60;;;34.20;1.00;;;;;;5116788;27;20528;-73
2022/08/05 11:42:00;;;;;;;0.80;0.50;;;33.70;1.00;;;;;;5118350;27;20444;-71
2022/08/05 11:44:37;;;;;;;0.70;0.60;;;33.50;1.00;;;;;;5135793;27;20515;-73
2022/08/05 11:47:04;;;;;;;0.90;0.60;;;33.20;99.90;;;;;;5135991;27;20508;-74
2022/08/05 11:49:33;;;;;;;0.70;0.50;;;33.10;99.90;;;;;;5136085;27;20451;-72
2022/08/05 11:52:00;;;;;;;0.87;0.50;;;33.10;99.90;;;;;;5136001;27;20448;-72
2022/08/05 11:54:31;;;;;;;0.73;0.57;;;33.20;1.00;;;;;;5103079;27;20460;-73
2022/08/05 11:56:59;;;;;;;0.60;0.50;;;33.30;99.90;;;;;;5116494;28;20613;-73
2022/08/05 11:59:29;;;;;;;0.73;0.60;;;33.30;99.90;;;;;;5116000;28;20457;-74
2022/08/05 12:01:59;;;;;;;0.60;0.60;;;33.10;99.90;;;;;;5116109;28;20444;-72
2022/08/05 12:04:28;;;;;;;0.70;0.47;;;33.00;99.90;;;;;;5097408;28;20484;-74
2022/08/05 12:06:59;;;;;;;0.90;0.50;;;32.80;99.90;;;;;;5114539;28;20484;-73
2022/08/05 12:09:30;;;;;;;0.70;0.50;;;32.70;99.90;;;;;;5115520;28;20451;-73
2022/08/05 12:11:57;;;;;;;1.03;0.57;;;33.10;99.90;;;;;;5107614;28;20480;-72
2022/08/05 12:14:24;;;;;;;0.70;0.47;;;33.10;99.90;;;;;;5112837;28;20502;-73
2022/08/05 12:16:51;;;;;;;0.97;0.87;;;33.20;99.90;;;;;;5112868;28;20452;-72
2022/08/05 12:19:21;;;;;;;1.00;0.60;;;33.30;1.00;;;;;;5113785;28;20544;-74
2022/08/05 12:21:50;;;;;;;0.90;0.50;;;33.30;99.90;;;;;;5113680;28;20461;-74
2022/08/05 12:24:20;;;;;;;0.80;0.60;;;33.30;1.00;;;;;;5113627;28;20519;-74
2022/08/05 12:26:50;;;;;;;0.80;0.60;;;33.20;99.90;;;;;;5113538;28;20495;-74
2022/08/05 12:29:22;;;;;;;0.97;0.50;;;33.10;99.90;;;;;;5114309;28;20449;-76
2022/08/05 12:31:52;;;;;;;0.70;0.60;;;32.80;99.90;;;;;;5115074;28;20918;-74
2022/08/05 12:34:22;;;;;;;0.70;0.60;;;33.00;99.90;;;;;;5115536;28;20448;-73
2022/08/05 12:36:51;;;;;;;0.90;0.80;;;32.90;99.90;;;;;;5118173;28;20463;-74
2022/08/05 12:39:20;;;;;;;1.47;0.83;;;32.70;99.90;;;;;;5119242;28;20601;-73
2022/08/05 12:41:47;;;;;;;0.80;0.60;;;32.70;99.90;;;;;;5119473;28;20494;-73
2022/08/05 12:44:16;;;;;;;5.00;0.60;;;32.50;99.90;;;;;;5120303;28;20480;-73
2022/08/05 12:46:51;;;;;;;0.90;0.70;;;32.60;99.90;;;;;;5119808;28;20484;-72
2022/08/05 12:49:18;;;;;;;0.60;0.60;;;32.70;99.90;;;;;;5118839;28;20444;-72
2022/08/05 12:51:46;;;;;;;1.00;0.57;;;32.70;1.00;;;;;;5117521;28;20452;-74
2022/08/05 12:54:21;;;;;;;1.17;0.60;;;32.50;1.00;;;;;;5117630;28;20452;-73
2022/08/05 12:56:51;;;;;;;1.07;0.70;;;32.70;1.00;;;;;;5118337;28;20486;-72
2022/08/05 12:59:19;;;;;;;1.53;0.63;;;33.20;1.00;;;;;;5118979;28;20540;-72
2022/08/05 13:01:59;;;;;;;1.43;0.70;;;33.40;1.00;;;;;;5118839;28;20475;-73
2022/08/05 13:04:28;;;;;;;0.80;0.60;;;33.80;1.00;;;;;;5117588;28;20486;-73
2022/08/05 13:06:57;;;;;;;0.83;0.60;;;34.20;1.00;;;;;;5118502;28;20498;-74
2022/08/05 13:09:27;;;;;;;0.80;0.60;;;34.60;1.00;;;;;;5119274;28;20933;-74
2022/08/05 13:12:03;;;;;;;0.70;0.53;;;34.50;1.00;;;;;;5126150;27;20479;-75
2022/08/05 13:14:37;;;;;;;1.43;0.60;;;34.80;1.00;;;;;;5139876;27;20538;-73
2022/08/05 13:17:09;;;;;;;0.80;0.67;;;35.00;1.00;;;;;;5139225;27;20455;-74